createdAt,value
2022-07-30T00:01:47.326Z,3.75
2022-07-30T00:04:14.432Z,3.20
2022-07-30T00:06:41.479Z,3.80
2022-07-30T00:09:08.653Z,3.55
2022-07-30T00:11:36.013Z,3.25
2022-07-30T00:14:03.040Z,3.10
2022-07-30T00:16:30.070Z,3.38
2022-07-30T00:18:57.113Z,3.38
2022-07-30T00:21:36.286Z,3.05
2022-07-30T00:24:06.909Z,2.72
2022-07-30T00:26:34.170Z,2.75
2022-07-30T00:29:01.212Z,3.53
2022-07-30T00:31:29.279Z,2.75
2022-07-30T00:33:56.406Z,3.03
2022-07-30T00:36:23.859Z,3.03
2022-07-30T00:38:50.968Z,2.70
2022-07-30T00:41:18.075Z,2.88
2022-07-30T00:43:45.399Z,2.75
2022-07-30T00:46:14.785Z,2.72
2022-07-30T00:48:42.934Z,2.40
2022-07-30T00:51:10.747Z,2.60
2022-07-30T00:53:38.570Z,2.60
2022-07-30T00:56:06.129Z,2.70
2022-07-30T00:58:33.095Z,2.53
2022-07-30T01:01:00.325Z,2.63
2022-07-30T01:03:27.440Z,2.55
2022-07-30T01:05:54.627Z,2.25
2022-07-30T01:08:22.100Z,2.88
2022-07-30T01:10:49.070Z,2.60
2022-07-30T01:13:16.053Z,2.17
2022-07-30T01:15:43.648Z,2.60
2022-07-30T01:18:13.325Z,2.20
2022-07-30T01:21:02.295Z,2.20
2022-07-30T01:23:38.151Z,2.03
2022-07-30T01:26:11.964Z,2.30
2022-07-30T01:28:46.894Z,2.80
2022-07-30T01:31:15.144Z,2.38
2022-07-30T01:33:45.832Z,1.88
2022-07-30T01:36:16.408Z,2.08
2022-07-30T01:38:49.436Z,2.20
2022-07-30T01:41:18.760Z,2.40
2022-07-30T01:43:46.847Z,2.25
2022-07-30T01:46:16.658Z,1.95
2022-07-30T01:48:47.816Z,2.03
2022-07-30T01:51:18.206Z,2.00
2022-07-30T01:53:50.334Z,2.50
2022-07-30T01:56:24.721Z,2.45
2022-07-30T01:58:55.631Z,2.50
2022-07-30T02:01:27.541Z,1.77
2022-07-30T02:04:01.971Z,2.17
2022-07-30T02:06:46.947Z,1.92
2022-07-30T02:09:22.526Z,2.00
2022-07-30T02:12:32.852Z,2.20
2022-07-30T02:15:15.857Z,2.25
2022-07-30T02:18:01.838Z,1.90
2022-07-30T02:20:31.846Z,2.08
2022-07-30T02:23:10.479Z,2.38
2022-07-30T02:25:42.252Z,2.03
2022-07-30T02:28:13.013Z,2.15
2022-07-30T02:30:47.255Z,1.92
2022-07-30T02:33:17.242Z,1.80
2022-07-30T02:35:44.817Z,1.80
2022-07-30T02:38:13.686Z,1.83
2022-07-30T02:40:44.869Z,2.05
2022-07-30T02:43:14.485Z,2.20
2022-07-30T02:45:42.680Z,1.92
2022-07-30T02:48:11.758Z,1.90
2022-07-30T02:51:00.710Z,2.30
2022-07-30T02:53:28.529Z,1.77
2022-07-30T02:55:57.114Z,1.65
2022-07-30T02:58:26.129Z,2.10
2022-07-30T03:00:55.060Z,1.70
2022-07-30T03:03:28.935Z,1.65
2022-07-30T03:05:58.230Z,1.75
2022-07-30T03:08:27.791Z,2.25
2022-07-30T03:10:56.693Z,2.20
2022-07-30T03:13:25.644Z,2.08
2022-07-30T03:15:54.038Z,2.03
2022-07-30T03:18:23.443Z,1.85
2022-07-30T03:20:54.181Z,1.90
2022-07-30T03:23:23.848Z,2.22
2022-07-30T03:25:57.702Z,2.10
2022-07-30T03:28:26.555Z,1.83
2022-07-30T03:30:54.092Z,1.83
2022-07-30T03:33:21.877Z,1.80
2022-07-30T03:35:49.821Z,2.17
2022-07-30T03:38:18.060Z,2.03
2022-07-30T03:40:46.753Z,1.85
2022-07-30T03:43:32.249Z,2.10
2022-07-30T03:46:07.876Z,2.10
2022-07-30T03:48:39.643Z,1.55
2022-07-30T03:51:11.530Z,2.00
2022-07-30T03:56:26.802Z,2.28
2022-07-30T03:59:16.421Z,2.63
2022-07-30T04:01:44.265Z,1.95
2022-07-30T04:04:26.780Z,2.33
2022-07-30T04:06:56.248Z,1.95
2022-07-30T04:09:23.451Z,2.10
2022-07-30T04:11:50.797Z,1.95
2022-07-30T04:14:24.615Z,1.95
2022-07-30T04:17:08.485Z,1.77
2022-07-30T04:19:46.611Z,1.98
2022-07-30T04:22:16.974Z,2.25
2022-07-30T04:24:45.050Z,2.45
2022-07-30T04:27:12.653Z,2.15
2022-07-30T04:29:40.851Z,2.20
2022-07-30T04:32:09.714Z,2.00
2022-07-30T04:34:55.980Z,2.78
2022-07-30T04:37:54.649Z,2.60
2022-07-30T04:40:21.971Z,2.30
2022-07-30T04:42:49.513Z,2.38
2022-07-30T04:45:16.804Z,2.42
2022-07-30T04:47:58.625Z,3.10
2022-07-30T04:50:48.968Z,2.70
2022-07-30T04:53:19.870Z,2.55
2022-07-30T04:55:53.796Z,1.88
2022-07-30T04:58:24.592Z,2.20
2022-07-30T05:00:55.366Z,1.88
2022-07-30T05:03:27.594Z,1.98
2022-07-30T05:05:57.594Z,2.88
2022-07-30T05:08:28.216Z,2.00
2022-07-30T05:10:58.528Z,2.03
2022-07-30T05:13:34.639Z,2.38
2022-07-30T05:16:07.636Z,2.40
2022-07-30T05:18:35.573Z,2.20
2022-07-30T05:21:02.544Z,2.38
2022-07-30T05:23:36.267Z,1.80
2022-07-30T05:26:28.412Z,1.83
2022-07-30T05:28:57.343Z,1.92
2022-07-30T05:31:46.544Z,2.22
2022-07-30T05:34:13.936Z,2.33
2022-07-30T05:36:45.089Z,1.80
2022-07-30T05:39:14.372Z,1.95
2022-07-30T05:41:54.152Z,1.80
2022-07-30T05:44:26.419Z,1.70
2022-07-30T05:46:53.530Z,1.65
2022-07-30T05:49:20.586Z,2.05
2022-07-30T05:51:47.596Z,1.92
2022-07-30T05:54:17.745Z,2.20
2022-07-30T05:57:16.869Z,3.33
2022-07-30T05:59:44.106Z,1.67
2022-07-30T06:02:18.400Z,2.05
2022-07-30T06:04:59.638Z,2.40
2022-07-30T06:07:27.193Z,1.60
2022-07-30T06:10:00.369Z,1.58
2022-07-30T06:12:29.497Z,2.20
2022-07-30T06:14:57.203Z,2.28
2022-07-30T06:17:51.995Z,2.25
2022-07-30T06:20:39.767Z,2.30
2022-07-30T06:23:29.884Z,1.90
2022-07-30T06:26:15.214Z,2.40
2022-07-30T06:28:42.823Z,1.88
2022-07-30T06:31:25.348Z,1.60
2022-07-30T06:33:52.677Z,2.10
2022-07-30T06:36:19.856Z,2.00
2022-07-30T06:39:01.002Z,1.90
2022-07-30T06:41:43.256Z,1.90
2022-07-30T06:44:13.829Z,2.40
2022-07-30T06:46:49.841Z,1.83
2022-07-30T06:49:20.118Z,1.98
2022-07-30T06:51:47.121Z,1.65
2022-07-30T06:54:14.444Z,2.08
2022-07-30T06:56:59.039Z,1.98
2022-07-30T06:59:27.673Z,2.40
2022-07-30T07:02:13.632Z,2.13
2022-07-30T07:04:59.100Z,2.50
2022-07-30T07:07:40.772Z,2.47
2022-07-30T07:10:11.245Z,2.30
2022-07-30T07:13:07.312Z,2.00
2022-07-30T07:15:36.998Z,2.33
2022-07-30T07:18:06.824Z,2.13
2022-07-30T07:20:39.397Z,2.33
2022-07-30T07:23:12.001Z,2.50
2022-07-30T07:25:41.458Z,2.75
2022-07-30T07:28:12.112Z,2.88
2022-07-30T07:30:43.469Z,2.90
2022-07-30T07:33:12.732Z,2.28
2022-07-30T07:35:49.227Z,3.28
2022-07-30T07:38:22.765Z,3.38
2022-07-30T07:40:51.253Z,3.42
2022-07-30T07:43:18.476Z,3.83
2022-07-30T07:45:48.409Z,4.10
2022-07-30T07:48:15.781Z,5.20
2022-07-30T07:50:54.984Z,5.13
2022-07-30T07:53:28.023Z,5.55
2022-07-30T07:55:57.292Z,6.53
2022-07-30T07:58:26.862Z,6.85
2022-07-30T08:00:58.090Z,6.68
2022-07-30T08:03:45.112Z,8.90
2022-07-30T08:06:32.022Z,6.10
2022-07-30T08:09:22.016Z,7.40
2022-07-30T08:12:06.411Z,6.90
2022-07-30T08:15:12.502Z,6.93
2022-07-30T08:18:11.382Z,8.00
2022-07-30T08:21:10.937Z,7.38
2022-07-30T08:23:42.391Z,6.68
2022-07-30T08:26:10.702Z,6.70
2022-07-30T08:28:37.712Z,6.63
2022-07-30T08:31:07.366Z,6.80
2022-07-30T08:33:34.438Z,6.60
2022-07-30T08:36:09.024Z,6.00
2022-07-30T08:38:38.035Z,7.53
2022-07-30T08:41:05.684Z,7.18
2022-07-30T08:43:34.982Z,7.13
2022-07-30T08:46:03.637Z,7.07
2022-07-30T08:51:22.464Z,7.45
2022-07-30T08:54:07.376Z,7.70
2022-07-30T08:56:35.517Z,6.32
2022-07-30T08:59:03.081Z,5.75
2022-07-30T09:01:30.107Z,6.90
2022-07-30T09:03:57.652Z,5.22
2022-07-30T09:06:27.355Z,4.43
2022-07-30T09:08:54.682Z,4.82
2022-07-30T09:11:22.182Z,4.20
2022-07-30T09:13:50.899Z,4.10
2022-07-30T09:16:22.236Z,4.55
2022-07-30T09:18:50.088Z,4.50
2022-07-30T09:21:23.380Z,4.00
2022-07-30T09:24:13.531Z,3.95
2022-07-30T09:27:01.363Z,3.70
2022-07-30T09:30:00.955Z,3.97
2022-07-30T09:32:53.837Z,4.10
2022-07-30T09:35:56.501Z,3.75
2022-07-30T09:38:50.471Z,4.05
2022-07-30T09:41:52.600Z,4.20
2022-07-30T09:44:25.345Z,4.95
2022-07-30T09:46:58.612Z,3.90
2022-07-30T09:49:30.805Z,3.70
2022-07-30T09:51:57.962Z,3.60
2022-07-30T09:54:51.150Z,3.80
2022-07-30T09:57:26.673Z,4.57
2022-07-30T10:00:23.437Z,3.80
2022-07-30T10:03:33.587Z,4.35
2022-07-30T10:06:38.391Z,4.22
2022-07-30T10:09:37.291Z,4.20
2022-07-30T10:12:10.743Z,4.10
2022-07-30T10:14:43.880Z,4.30
2022-07-30T10:17:13.374Z,4.20
2022-07-30T10:19:42.801Z,4.00
2022-07-30T10:22:28.793Z,3.60
2022-07-30T10:25:18.828Z,4.28
2022-07-30T10:28:06.964Z,4.25
2022-07-30T10:30:34.419Z,4.38
2022-07-30T10:33:02.283Z,4.47
2022-07-30T10:35:34.737Z,4.80
2022-07-30T10:38:13.986Z,4.03
2022-07-30T10:40:58.719Z,4.50
2022-07-30T10:43:41.235Z,4.70
2022-07-30T10:46:29.401Z,4.88
2022-07-30T10:49:07.489Z,4.38
2022-07-30T10:51:46.619Z,3.95
2022-07-30T10:54:39.707Z,4.47
2022-07-30T10:57:14.948Z,4.30
2022-07-30T10:59:50.334Z,4.13
2022-07-30T11:02:19.596Z,4.03
2022-07-30T11:04:47.552Z,3.38
2022-07-30T11:07:23.967Z,4.03
2022-07-30T11:10:05.178Z,3.63
2022-07-30T11:12:41.805Z,3.13
2022-07-30T11:15:18.729Z,3.70
2022-07-30T11:18:01.034Z,3.67
2022-07-30T11:20:32.720Z,2.92
2022-07-30T11:23:39.473Z,3.35
2022-07-30T11:26:07.720Z,3.45
2022-07-30T11:28:49.278Z,3.15
2022-07-30T11:31:55.746Z,3.08
2022-07-30T11:34:18.757Z,2.80
2022-07-30T11:37:18.620Z,2.45
2022-07-30T11:39:55.730Z,2.47
2022-07-30T11:42:31.442Z,2.60
2022-07-30T11:45:16.713Z,2.60
2022-07-30T11:47:52.136Z,2.40
2022-07-30T11:50:26.653Z,2.50
2022-07-30T11:52:56.758Z,2.70
2022-07-30T11:55:32.773Z,2.40
2022-07-30T11:58:01.721Z,2.25
2022-07-30T12:00:40.950Z,2.22
2022-07-30T12:03:16.806Z,2.08
2022-07-30T12:05:44.637Z,2.20
2022-07-30T12:08:35.961Z,2.00
2022-07-30T12:11:01.248Z,2.38
2022-07-30T12:13:42.883Z,2.05
2022-07-30T12:16:16.189Z,2.63
2022-07-30T12:18:44.350Z,2.15
2022-07-30T12:21:12.814Z,1.83
2022-07-30T12:23:43.244Z,1.45
2022-07-30T12:26:34.294Z,1.90
2022-07-30T12:29:06.631Z,1.75
2022-07-30T12:31:34.245Z,1.60
2022-07-30T12:34:05.709Z,1.90
2022-07-30T12:36:35.565Z,1.73
2022-07-30T12:39:04.977Z,1.60
2022-07-30T12:41:52.632Z,1.50
2022-07-30T12:44:41.036Z,2.10
2022-07-30T12:47:22.049Z,1.25
2022-07-30T12:49:50.376Z,1.48
2022-07-30T12:52:28.712Z,1.77
2022-07-30T12:55:07.337Z,1.40
2022-07-30T12:58:07.627Z,1.52
2022-07-30T13:00:44.660Z,1.67
2022-07-30T13:03:22.746Z,1.50
2022-07-30T13:05:55.250Z,1.02
2022-07-30T13:11:08.169Z,1.42
2022-07-30T13:13:35.109Z,1.33
2022-07-30T13:16:05.128Z,1.70
2022-07-30T13:18:33.721Z,1.73
2022-07-30T13:21:02.366Z,1.27
2022-07-30T13:23:30.044Z,1.70
2022-07-30T13:25:57.917Z,1.30
2022-07-30T13:28:25.502Z,1.58
2022-07-30T13:30:53.055Z,1.48
2022-07-30T13:33:20.135Z,1.58
2022-07-30T13:35:47.169Z,1.63
2022-07-30T13:38:15.593Z,1.50
2022-07-30T13:40:42.679Z,1.67
2022-07-30T13:43:09.806Z,1.80
2022-07-30T13:45:37.064Z,1.52
2022-07-30T13:48:04.576Z,1.88
2022-07-30T13:50:31.572Z,1.67
2022-07-30T13:53:02.019Z,1.60
2022-07-30T13:55:29.493Z,1.67
2022-07-30T13:57:56.616Z,1.42
2022-07-30T14:00:24.372Z,1.50
2022-07-30T14:02:51.661Z,1.30
2022-07-30T14:05:18.709Z,1.50
2022-07-30T14:07:45.670Z,1.75
2022-07-30T14:10:12.676Z,1.65
2022-07-30T14:12:40.113Z,1.60
2022-07-30T14:15:09.364Z,1.60
2022-07-30T14:17:36.421Z,1.50
2022-07-30T14:20:04.488Z,1.55
2022-07-30T14:22:31.487Z,1.45
2022-07-30T14:25:00.156Z,1.33
2022-07-30T14:27:27.142Z,1.30
2022-07-30T14:29:54.127Z,1.20
2022-07-30T14:32:21.133Z,1.40
2022-07-30T14:34:50.604Z,1.20
2022-07-30T14:37:17.776Z,1.50
2022-07-30T14:39:44.892Z,1.50
2022-07-30T14:42:11.881Z,1.35
2022-07-30T14:44:38.956Z,1.30
2022-07-30T14:47:06.394Z,1.58
2022-07-30T14:49:33.708Z,1.50
2022-07-30T14:52:01.023Z,1.55
2022-07-30T14:54:28.084Z,1.33
2022-07-30T14:56:58.246Z,1.60
2022-07-30T14:59:27.595Z,1.30
2022-07-30T15:01:55.854Z,1.40
2022-07-30T15:04:23.291Z,1.40
2022-07-30T15:06:50.275Z,1.50
2022-07-30T15:09:17.240Z,1.50
2022-07-30T15:12:08.954Z,1.50
2022-07-30T15:14:31.591Z,1.33
2022-07-30T15:17:03.907Z,2.45
2022-07-30T15:19:32.332Z,1.80
2022-07-30T15:22:02.512Z,1.98
2022-07-30T15:24:30.209Z,1.85
2022-07-30T15:26:57.183Z,1.70
2022-07-30T15:29:27.208Z,1.50
2022-07-30T15:31:54.413Z,1.50
2022-07-30T15:34:21.522Z,2.20
2022-07-30T15:36:48.912Z,2.40
2022-07-30T15:39:15.913Z,1.60
2022-07-30T15:41:43.091Z,1.67
2022-07-30T15:44:10.043Z,1.60
2022-07-30T15:46:37.021Z,1.73
2022-07-30T15:49:04.051Z,1.48
2022-07-30T15:51:32.669Z,1.55
2022-07-30T15:53:59.840Z,1.55
2022-07-30T15:56:28.326Z,1.42
2022-07-30T15:58:57.933Z,1.60
2022-07-30T16:01:24.926Z,1.75
2022-07-30T16:03:54.729Z,1.88
2022-07-30T16:06:21.769Z,1.58
2022-07-30T16:08:48.776Z,1.30
2022-07-30T16:11:15.820Z,1.60
2022-07-30T16:13:43.017Z,1.27
2022-07-30T16:16:10.103Z,1.45
2022-07-30T16:18:37.135Z,1.33
2022-07-30T16:21:04.109Z,1.65
2022-07-30T16:23:36.558Z,1.30
2022-07-30T16:26:04.363Z,1.40
2022-07-30T16:28:31.884Z,1.38
2022-07-30T16:30:58.841Z,1.60
2022-07-30T16:33:25.832Z,1.70
2022-07-30T16:35:52.808Z,1.50
2022-07-30T16:38:20.785Z,1.40
2022-07-30T16:40:47.844Z,1.70
2022-07-30T16:43:16.262Z,1.90
2022-07-30T16:45:43.863Z,1.50
2022-07-30T16:48:11.506Z,1.50
2022-07-30T16:50:40.663Z,1.42
2022-07-30T16:53:13.540Z,1.40
2022-07-30T16:55:41.075Z,1.13
2022-07-30T16:58:08.078Z,1.67
2022-07-30T17:00:35.098Z,1.30
2022-07-30T17:03:02.372Z,1.70
2022-07-30T17:05:29.567Z,1.80
2022-07-30T17:07:56.573Z,2.00
2022-07-30T17:10:25.879Z,1.73
2022-07-30T17:12:53.942Z,1.92
2022-07-30T17:15:32.185Z,1.80
2022-07-30T17:18:01.161Z,1.90
2022-07-30T17:20:29.584Z,1.88
2022-07-30T17:22:56.744Z,2.10
2022-07-30T17:25:27.423Z,1.70
2022-07-30T17:27:58.602Z,1.65
2022-07-30T17:30:27.988Z,2.08
2022-07-30T17:32:55.061Z,4.03
2022-07-30T17:35:22.730Z,1.83
2022-07-30T17:37:49.849Z,1.60
2022-07-30T17:40:30.567Z,1.77
2022-07-30T17:43:07.518Z,1.80
2022-07-30T17:45:36.342Z,2.00
2022-07-30T17:48:04.871Z,2.25
2022-07-30T17:50:33.108Z,1.70
2022-07-30T17:53:03.254Z,1.80
2022-07-30T17:55:31.824Z,2.25
2022-07-30T17:57:58.924Z,1.75
2022-07-30T18:00:26.252Z,2.13
2022-07-30T18:02:53.222Z,1.65
2022-07-30T18:05:20.375Z,2.00
2022-07-30T18:07:47.429Z,1.80
2022-07-30T18:10:14.583Z,2.28
2022-07-30T18:12:49.022Z,1.70
2022-07-30T18:15:18.007Z,1.80
2022-07-30T18:17:45.264Z,1.52
2022-07-30T18:20:12.760Z,2.03
2022-07-30T18:22:40.534Z,1.88
2022-07-30T18:25:18.674Z,2.03
2022-07-30T18:27:47.464Z,2.03
2022-07-30T18:30:14.983Z,2.00
2022-07-30T18:32:42.000Z,1.80
2022-07-30T18:35:14.106Z,2.20
2022-07-30T18:37:42.834Z,2.25
2022-07-30T18:40:11.263Z,1.90
2022-07-30T18:42:38.234Z,1.85
2022-07-30T18:45:06.177Z,1.73
2022-07-30T18:47:33.213Z,2.20
2022-07-30T18:50:00.340Z,2.63
2022-07-30T18:52:27.347Z,2.33
2022-07-30T18:54:54.298Z,2.45
2022-07-30T18:57:21.377Z,1.98
2022-07-30T18:59:48.402Z,1.80
2022-07-30T19:02:15.359Z,1.90
2022-07-30T19:04:42.366Z,2.03
2022-07-30T19:07:09.576Z,2.13
2022-07-30T19:09:37.099Z,2.40
2022-07-30T19:12:05.487Z,2.20
2022-07-30T19:14:32.819Z,2.15
2022-07-30T19:17:00.025Z,2.17
2022-07-30T19:19:27.389Z,2.28
2022-07-30T19:21:54.705Z,2.42
2022-07-30T19:24:21.674Z,2.40
2022-07-30T19:26:48.969Z,2.25
2022-07-30T19:29:16.036Z,2.17
2022-07-30T19:31:43.117Z,2.38
2022-07-30T19:34:11.186Z,2.60
2022-07-30T19:36:39.647Z,1.92
2022-07-30T19:39:07.376Z,2.03
2022-07-30T19:41:40.655Z,2.53
2022-07-30T19:44:09.446Z,2.03
2022-07-30T19:46:37.749Z,2.42
2022-07-30T19:49:06.734Z,2.58
2022-07-30T19:52:10.768Z,2.47
2022-07-30T19:54:21.030Z,2.88
2022-07-30T19:56:48.849Z,3.22
2022-07-30T19:59:16.156Z,3.28
2022-07-30T20:01:44.101Z,2.20
2022-07-30T20:04:14.789Z,2.20
2022-07-30T20:06:45.983Z,2.03
2022-07-30T20:09:15.179Z,2.40
2022-07-30T20:11:43.390Z,2.20
2022-07-30T20:14:10.473Z,2.58
2022-07-30T20:16:37.790Z,2.22
2022-07-30T20:19:05.449Z,2.35
2022-07-30T20:21:56.591Z,2.30
2022-07-30T20:24:20.974Z,2.58
2022-07-30T20:26:48.113Z,2.72
2022-07-30T20:29:15.695Z,2.20
2022-07-30T20:31:46.081Z,2.08
2022-07-30T20:34:17.837Z,1.83
2022-07-30T20:36:45.140Z,2.90
2022-07-30T20:39:13.544Z,3.00
2022-07-30T20:44:23.153Z,2.58
2022-07-30T20:46:52.753Z,1.92
2022-07-30T20:49:24.099Z,1.80
2022-07-30T20:51:59.015Z,2.22
2022-07-30T20:54:26.962Z,2.28
2022-07-30T20:56:54.103Z,2.70
2022-07-30T20:59:23.739Z,2.08
2022-07-30T21:01:50.955Z,2.17
2022-07-30T21:04:23.840Z,2.35
2022-07-30T21:06:52.907Z,2.45
2022-07-30T21:09:20.533Z,2.35
2022-07-30T21:11:50.381Z,2.20
2022-07-30T21:14:27.758Z,2.50
2022-07-30T21:16:56.296Z,2.40
2022-07-30T21:19:23.359Z,2.00
2022-07-30T21:21:50.684Z,1.70
2022-07-30T21:24:19.417Z,2.20
2022-07-30T21:26:48.955Z,2.35
2022-07-30T21:29:17.267Z,2.00
2022-07-30T21:32:00.605Z,2.35
2022-07-30T21:34:35.930Z,2.40
2022-07-30T21:37:07.601Z,2.47
2022-07-30T21:39:39.579Z,2.25
2022-07-30T21:42:08.803Z,2.35
2022-07-30T21:44:37.689Z,2.53
2022-07-30T21:49:52.717Z,2.08
2022-07-30T21:52:20.194Z,2.22
2022-07-30T21:54:50.518Z,1.85
2022-07-30T21:57:26.136Z,2.42
2022-07-30T21:59:55.062Z,2.35
2022-07-30T22:02:23.783Z,2.40
2022-07-30T22:04:51.661Z,2.17
2022-07-30T22:07:18.689Z,2.10
2022-07-30T22:09:49.140Z,2.00
2022-07-30T22:12:18.358Z,2.30
2022-07-30T22:14:48.740Z,2.03
2022-07-30T22:17:23.786Z,2.60
2022-07-30T22:20:05.045Z,1.90
2022-07-30T22:22:36.481Z,2.50
2022-07-30T22:25:06.760Z,2.00
2022-07-30T22:27:39.589Z,2.10
2022-07-30T22:30:30.554Z,2.58
2022-07-30T22:33:15.560Z,2.40
2022-07-30T22:35:46.889Z,2.20
2022-07-30T22:38:19.651Z,2.15
2022-07-30T22:40:47.419Z,1.98
2022-07-30T22:43:16.485Z,1.85
2022-07-30T22:45:48.730Z,1.90
2022-07-30T22:48:16.913Z,2.10
2022-07-30T22:50:43.904Z,2.10
2022-07-30T22:53:56.911Z,1.92
2022-07-30T22:55:58.897Z,2.10
2022-07-30T22:58:26.703Z,2.20
2022-07-30T23:00:54.313Z,1.88
2022-07-30T23:03:21.373Z,1.95
2022-07-30T23:05:55.913Z,2.00
2022-07-30T23:08:29.425Z,1.95
2022-07-30T23:12:32.893Z,2.10
2022-07-30T23:13:27.595Z,2.10
2022-07-30T23:15:54.526Z,2.08
2022-07-30T23:18:21.473Z,2.05
2022-07-30T23:20:48.487Z,1.75
2022-07-30T23:23:15.482Z,1.85
2022-07-30T23:25:42.471Z,2.17
2022-07-30T23:28:09.415Z,2.53
2022-07-30T23:30:36.378Z,1.98
2022-07-30T23:33:03.463Z,1.70
2022-07-30T23:35:31.022Z,2.13
2022-07-30T23:37:58.039Z,1.90
2022-07-30T23:40:24.982Z,2.00
2022-07-30T23:42:52.581Z,1.80
2022-07-30T23:45:20.083Z,2.20
2022-07-30T23:47:52.960Z,1.90
2022-07-30T23:50:31.914Z,1.73
2022-07-30T23:52:59.858Z,1.88
2022-07-30T23:55:27.393Z,1.80
2022-07-30T23:57:54.833Z,2.10
